createdAt,value
2019-04-26T00:04:00.615Z,40.53
2019-04-26T00:09:25.120Z,40.49
2019-04-26T00:14:52.420Z,40.80
2019-04-26T00:19:57.955Z,40.91
2019-04-26T00:25:03.301Z,41.06
2019-04-26T00:30:08.818Z,41.32
2019-04-26T00:35:14.094Z,40.97
2019-04-26T00:40:20.288Z,40.45
2019-04-26T00:45:29.108Z,40.46
2019-04-26T00:50:36.185Z,41.07
2019-04-26T00:55:42.121Z,41.06
2019-04-26T01:00:48.109Z,40.92
2019-04-26T01:06:00.287Z,40.89
2019-04-26T01:11:01.669Z,41.38
2019-04-26T01:16:06.959Z,41.35
2019-04-26T01:21:14.756Z,40.95
2019-04-26T01:26:27.332Z,40.91
2019-04-26T01:31:35.991Z,41.02
2019-04-26T01:36:42.513Z,40.88
2019-04-26T01:41:55.846Z,41.02
2019-04-26T01:47:01.902Z,41.23
2019-04-26T01:52:10.804Z,41.34
2019-04-26T01:57:16.552Z,41.83
2019-04-26T02:02:46.077Z,41.58
2019-04-26T02:07:51.671Z,42.38
2019-04-26T02:12:57.842Z,41.66
2019-04-26T02:18:04.157Z,41.89
2019-04-26T02:23:17.309Z,44.02
2019-04-26T02:28:22.619Z,44.54
2019-04-26T02:33:29.680Z,45.70
2019-04-26T02:38:36.632Z,46.39
2019-04-26T02:43:45.672Z,46.37
2019-04-26T02:49:15.180Z,45.79
2019-04-26T02:54:44.963Z,45.66
2019-04-26T02:59:55.104Z,45.93
2019-04-26T03:05:04.661Z,45.88
2019-04-26T03:10:10.530Z,46.85
2019-04-26T03:15:46.395Z,47.07
2019-04-26T03:20:58.332Z,48.10
2019-04-26T03:26:27.362Z,48.12
2019-04-26T03:31:55.093Z,48.77
2019-04-26T03:37:50.074Z,47.97
2019-04-26T03:43:23.852Z,47.66
2019-04-26T03:48:59.634Z,47.87
2019-04-26T03:54:14.619Z,48.01
2019-04-26T03:59:48.366Z,48.54
2019-04-26T04:05:05.411Z,48.81
2019-04-26T04:10:15.659Z,49.42
2019-04-26T04:15:29.506Z,49.73
2019-04-26T04:21:02.724Z,50.37
2019-04-26T04:26:09.018Z,51.11
2019-04-26T04:31:25.111Z,50.04
2019-04-26T04:36:44.570Z,51.09
2019-04-26T04:42:26.866Z,52.02
2019-04-26T04:47:47.196Z,51.78
2019-04-26T04:53:25.060Z,51.68
2019-04-26T04:58:37.842Z,52.73
2019-04-26T05:04:10.810Z,52.41
2019-04-26T05:09:28.541Z,51.97
2019-04-26T05:15:12.778Z,52.45
2019-04-26T05:20:29.230Z,52.13
2019-04-26T05:26:33.478Z,52.55
2019-04-26T05:31:51.541Z,52.14
2019-04-26T05:37:25.662Z,51.91
2019-04-26T05:43:24.907Z,51.70
2019-04-26T05:48:47.608Z,51.64
2019-04-26T05:54:46.994Z,51.85
2019-04-26T06:00:04.097Z,51.30
2019-04-26T06:05:27.721Z,51.56
2019-04-26T06:11:00.539Z,51.09
2019-04-26T06:16:26.423Z,51.56
2019-04-26T06:21:54.037Z,50.36
2019-04-26T06:27:57.035Z,50.38
2019-04-26T06:33:16.005Z,50.67
2019-04-26T06:39:11.134Z,50.26
2019-04-26T06:44:21.116Z,50.30
2019-04-26T06:50:15.022Z,50.08
2019-04-26T06:55:43.885Z,50.12
2019-04-26T07:01:15.029Z,50.13
2019-04-26T07:06:34.846Z,50.45
2019-04-26T07:12:37.593Z,49.95
2019-04-26T07:18:22.320Z,49.68
2019-04-26T07:24:13.341Z,49.74
2019-04-26T07:29:56.433Z,49.65
2019-04-26T07:35:14.449Z,50.46
2019-04-26T07:41:29.078Z,49.96
2019-04-26T07:47:21.158Z,49.72
2019-04-26T07:52:55.962Z,49.67
2019-04-26T07:58:48.040Z,49.36
2019-04-26T08:04:03.771Z,49.44
2019-04-26T08:09:26.020Z,49.06
2019-04-26T08:14:25.013Z,48.88
2019-04-26T08:19:33.651Z,48.94
2019-04-26T08:24:41.425Z,48.45
2019-04-26T08:29:49.137Z,48.88
2019-04-26T08:35:02.327Z,48.02
2019-04-26T08:40:08.419Z,47.28
2019-04-26T08:45:27.310Z,46.96
2019-04-26T08:50:45.898Z,47.31
2019-04-26T08:55:52.585Z,46.54
2019-04-26T09:01:09.694Z,47.03
2019-04-26T09:06:30.538Z,46.95
2019-04-26T09:11:37.043Z,46.69
2019-04-26T09:16:50.154Z,47.31
2019-04-26T09:22:12.485Z,46.82
2019-04-26T09:27:40.561Z,46.83
2019-04-26T09:32:50.514Z,45.96
2019-04-26T09:37:56.601Z,46.17
2019-04-26T09:43:16.603Z,45.36
2019-04-26T09:48:25.909Z,46.01
2019-04-26T09:53:31.277Z,45.71
2019-04-26T09:58:36.515Z,45.58
2019-04-26T10:03:41.790Z,45.80
2019-04-26T10:08:48.155Z,46.28
2019-04-26T10:14:21.704Z,45.67
2019-04-26T10:19:34.993Z,45.55
2019-04-26T10:24:40.648Z,45.56
2019-04-26T10:29:46.191Z,45.65
2019-04-26T10:34:51.454Z,46.12
2019-04-26T10:39:56.682Z,45.25
2019-04-26T10:45:01.928Z,45.10
2019-04-26T10:50:08.058Z,43.99
2019-04-26T10:55:31.691Z,43.88
2019-04-26T11:00:40.297Z,44.00
2019-04-26T11:05:49.402Z,44.36
2019-04-26T11:10:53.211Z,43.42
2019-04-26T11:15:58.447Z,43.65
2019-04-26T11:21:04.149Z,44.05
2019-04-26T11:26:09.490Z,44.24
2019-04-26T11:31:14.845Z,43.68
2019-04-26T11:36:20.088Z,43.80
2019-04-26T11:41:25.352Z,44.38
2019-04-26T11:46:30.600Z,44.00
2019-04-26T11:51:35.839Z,43.29
2019-04-26T11:56:41.092Z,44.62
2019-04-26T12:01:46.361Z,44.04
2019-04-26T12:06:56.129Z,43.44
2019-04-26T12:12:04.839Z,43.42
2019-04-26T12:17:08.698Z,44.10
2019-04-26T12:22:13.959Z,43.40
2019-04-26T12:27:19.454Z,43.91
2019-04-26T12:32:24.828Z,43.44
2019-04-26T12:37:30.463Z,44.12
2019-04-26T12:42:35.711Z,45.04
2019-04-26T12:47:44.756Z,44.41
2019-04-26T12:52:51.474Z,44.26
2019-04-26T12:57:58.084Z,45.26
2019-04-26T13:03:05.369Z,45.29
2019-04-26T13:08:13.212Z,45.53
2019-04-26T13:13:22.375Z,45.35
2019-04-26T13:18:27.653Z,45.40
2019-04-26T13:23:33.005Z,45.50
2019-04-26T13:28:38.270Z,45.97
2019-04-26T13:33:43.533Z,45.65
2019-04-26T13:38:49.572Z,44.38
2019-04-26T13:43:57.129Z,45.05
2019-04-26T13:49:08.085Z,45.33
2019-04-26T13:54:16.437Z,45.80
2019-04-26T13:59:20.630Z,46.19
2019-04-26T14:04:26.249Z,46.00
2019-04-26T14:09:31.935Z,46.44
2019-04-26T14:14:37.200Z,46.41
2019-04-26T14:19:45.278Z,47.23
2019-04-26T14:24:58.285Z,48.11
2019-04-26T14:30:06.520Z,48.41
2019-04-26T14:35:11.542Z,48.61
2019-04-26T14:40:18.912Z,47.71
2019-04-26T14:45:24.346Z,47.68
2019-04-26T14:50:31.987Z,49.34
2019-04-26T14:55:37.871Z,48.80
2019-04-26T15:00:44.993Z,49.32
2019-04-26T15:06:03.038Z,49.27
2019-04-26T15:11:08.348Z,49.74
2019-04-26T15:16:14.451Z,50.34
2019-04-26T15:21:19.795Z,50.72
2019-04-26T15:26:29.601Z,50.69
2019-04-26T15:31:33.099Z,50.94
2019-04-26T15:36:38.851Z,51.03
2019-04-26T15:41:54.374Z,51.40
2019-04-26T15:47:13.111Z,51.34
2019-04-26T15:52:18.487Z,51.63
2019-04-26T15:57:30.016Z,51.34
2019-04-26T16:02:32.132Z,51.69
2019-04-26T16:07:38.347Z,51.97
2019-04-26T16:12:43.683Z,52.13
2019-04-26T16:17:49.879Z,52.26
2019-04-26T16:22:55.290Z,52.12
2019-04-26T16:28:30.876Z,50.91
2019-04-26T16:33:37.049Z,51.94
2019-04-26T16:38:48.610Z,52.84
2019-04-26T16:43:53.585Z,53.08
2019-04-26T16:49:03.733Z,54.34
2019-04-26T16:54:11.148Z,55.10
2019-04-26T16:59:22.668Z,55.74
2019-04-26T17:04:31.801Z,56.76
2019-04-26T17:09:54.826Z,58.18
2019-04-26T17:14:40.706Z,59.53
2019-04-26T17:19:47.440Z,61.33
2019-04-26T17:25:08.913Z,62.38
2019-04-26T17:30:20.021Z,62.99
2019-04-26T17:35:25.544Z,63.71
2019-04-26T17:40:36.184Z,64.61
2019-04-26T17:45:40.904Z,65.41
2019-04-26T17:50:45.326Z,65.95
2019-04-26T17:55:54.411Z,66.00
2019-04-26T18:01:01.037Z,65.51
2019-04-26T18:06:04.817Z,65.88
2019-04-26T18:11:18.886Z,65.92
2019-04-26T18:16:17.843Z,65.82
2019-04-26T18:21:43.761Z,66.13
2019-04-26T18:26:54.041Z,66.20
2019-04-26T18:31:59.123Z,66.53
2019-04-26T18:37:06.921Z,66.53
2019-04-26T18:42:09.920Z,67.37
2019-04-26T18:47:27.594Z,68.04
2019-04-26T18:52:30.921Z,67.64
2019-04-26T18:57:36.220Z,67.71
2019-04-26T19:02:42.882Z,68.41
2019-04-26T19:07:50.076Z,67.95
2019-04-26T19:13:00.035Z,68.02
2019-04-26T19:18:23.030Z,67.99
2019-04-26T19:23:29.172Z,68.08
2019-04-26T19:28:36.002Z,68.74
2019-04-26T19:33:42.898Z,68.98
2019-04-26T19:38:51.205Z,69.08
2019-04-26T19:43:56.586Z,68.80
2019-04-26T19:49:21.485Z,68.60
2019-04-26T19:54:37.068Z,68.44
2019-04-26T19:59:38.802Z,68.00
2019-04-26T20:04:44.280Z,67.54
2019-04-26T20:09:49.829Z,67.25
2019-04-26T20:14:58.440Z,67.75
2019-04-26T20:20:02.432Z,67.73
2019-04-26T20:25:11.772Z,67.98
2019-04-26T20:30:27.772Z,67.66
2019-04-26T20:35:32.912Z,67.68
2019-04-26T20:40:38.178Z,67.50
2019-04-26T20:46:07.909Z,66.85
2019-04-26T20:50:52.050Z,67.06
2019-04-26T20:55:57.939Z,66.94
2019-04-26T21:01:06.309Z,67.30
2019-04-26T21:06:11.672Z,67.01
2019-04-26T21:11:17.284Z,66.92
2019-04-26T21:16:22.529Z,66.72
2019-04-26T21:21:27.763Z,66.26
2019-04-26T21:26:54.460Z,66.52
2019-04-26T21:32:16.363Z,66.71
2019-04-26T21:37:43.210Z,66.89
2019-04-26T21:42:49.268Z,67.00
2019-04-26T21:47:54.696Z,67.61
2019-04-26T21:53:03.373Z,67.75
2019-04-26T21:58:07.863Z,67.93
2019-04-26T22:03:16.034Z,67.63
2019-04-26T22:08:24.976Z,67.45
2019-04-26T22:13:37.320Z,67.23
2019-04-26T22:19:12.767Z,66.51
2019-04-26T22:24:33.762Z,66.82
2019-04-26T22:29:39.102Z,67.03
2019-04-26T22:34:46.175Z,67.35
2019-04-26T22:39:51.271Z,67.48
2019-04-26T22:45:09.400Z,67.24
2019-04-26T22:50:20.871Z,67.41
2019-04-26T22:55:26.135Z,67.64
2019-04-26T23:00:33.022Z,67.68
2019-04-26T23:05:39.195Z,67.92
2019-04-26T23:10:48.071Z,67.90
2019-04-26T23:16:11.462Z,68.00
2019-04-26T23:21:28.242Z,67.94
2019-04-26T23:26:33.541Z,68.14
2019-04-26T23:31:41.679Z,68.32
2019-04-26T23:36:49.183Z,68.53
2019-04-26T23:41:53.961Z,68.73
2019-04-26T23:47:01.139Z,69.31
2019-04-26T23:52:06.654Z,69.28
2019-04-26T23:57:13.799Z,69.04
